createdAt,value
2017-06-15T13:19:59.051Z,4.93
2017-06-15T13:22:26.511Z,4.83
2017-06-15T13:24:53.956Z,4.37
2017-06-15T13:27:21.435Z,4.33
2017-06-15T13:29:48.898Z,4.43
2017-06-15T13:32:16.351Z,4.73
2017-06-15T13:34:43.822Z,4.40
2017-06-15T13:37:11.283Z,4.53
2017-06-15T13:39:38.743Z,4.37
2017-06-15T13:42:06.215Z,4.30
2017-06-15T13:44:34.446Z,4.10
2017-06-15T13:47:01.908Z,4.40
2017-06-15T13:49:29.379Z,3.67
2017-06-15T13:51:56.846Z,3.10
2017-06-15T13:54:24.302Z,3.50
2017-06-15T13:56:52.161Z,3.77
2017-06-15T13:59:19.702Z,2.93
2017-06-15T14:01:47.161Z,3.10
2017-06-15T14:04:14.618Z,3.33
2017-06-15T14:06:42.066Z,2.80
2017-06-15T14:09:09.527Z,3.60
2017-06-15T14:11:37.006Z,3.57
2017-06-15T14:14:04.475Z,3.30
2017-06-15T14:16:32.690Z,3.60
2017-06-15T14:19:00.158Z,3.27
2017-06-15T14:21:27.622Z,3.20
2017-06-15T14:23:55.089Z,3.03
2017-06-15T14:26:22.555Z,3.00
2017-06-15T14:28:50.010Z,3.07
2017-06-15T14:31:17.466Z,2.77
2017-06-15T14:33:44.934Z,3.27
2017-06-15T14:36:12.382Z,2.93
2017-06-15T14:38:39.834Z,3.17
2017-06-15T14:41:07.302Z,3.20
2017-06-15T14:43:34.761Z,3.00
2017-06-15T14:46:02.210Z,2.97
2017-06-15T14:48:29.678Z,3.00
2017-06-15T14:50:57.919Z,3.37
2017-06-15T14:53:25.371Z,3.13
2017-06-15T14:55:52.842Z,3.63
2017-06-15T14:58:20.290Z,3.23
2017-06-15T15:00:47.763Z,3.37
2017-06-15T15:03:15.233Z,3.53
2017-06-15T15:05:42.689Z,3.60
2017-06-15T15:08:10.206Z,3.67
2017-06-15T15:10:37.675Z,3.47
2017-06-15T15:13:05.134Z,2.80
2017-06-15T15:15:32.590Z,3.20
2017-06-15T15:18:00.059Z,3.53
2017-06-15T15:20:27.515Z,3.90
2017-06-15T15:22:54.979Z,3.27
2017-06-15T15:25:22.463Z,4.40
2017-06-15T15:27:50.667Z,3.20
2017-06-15T15:30:18.128Z,3.63
2017-06-15T15:32:45.598Z,3.67
2017-06-15T15:35:13.046Z,2.70
2017-06-15T15:37:40.502Z,2.80
2017-06-15T15:40:07.967Z,2.93
2017-06-15T15:42:35.422Z,3.93
2017-06-15T15:45:02.874Z,3.10
2017-06-15T15:47:30.369Z,3.33
2017-06-15T15:49:57.823Z,3.90
2017-06-15T15:52:25.274Z,3.00
2017-06-15T15:54:52.745Z,3.10
2017-06-15T15:57:20.968Z,3.63
2017-06-15T15:59:48.430Z,3.47
2017-06-15T16:02:15.894Z,3.20
2017-06-15T16:04:43.355Z,3.20
2017-06-15T16:07:10.807Z,3.50
2017-06-15T16:09:38.282Z,3.20
2017-06-15T16:12:05.735Z,3.10
2017-06-15T16:14:33.254Z,3.90
2017-06-15T16:17:00.726Z,3.10
2017-06-15T16:19:28.195Z,4.03
2017-06-15T16:21:55.690Z,3.50
2017-06-15T16:24:23.936Z,3.17
2017-06-15T16:26:51.401Z,3.43
2017-06-15T16:29:18.955Z,3.10
2017-06-15T16:31:46.431Z,6.07
2017-06-15T16:34:13.887Z,16.97
2017-06-15T16:36:41.350Z,12.87
2017-06-15T16:39:09.595Z,31.97
2017-06-15T16:41:37.071Z,38.70
2017-06-15T16:44:04.538Z,42.63
2017-06-15T16:46:32.778Z,38.87
2017-06-15T16:49:00.280Z,35.43
2017-06-15T16:51:27.735Z,40.20
2017-06-15T16:53:55.256Z,33.27
2017-06-15T16:56:22.711Z,38.90
2017-06-15T16:58:50.184Z,36.67
2017-06-15T17:01:17.663Z,33.00
2017-06-15T17:03:45.154Z,33.43
2017-06-15T17:06:12.610Z,33.80
2017-06-15T17:08:40.086Z,24.93
2017-06-15T17:11:07.578Z,26.90
2017-06-15T17:13:35.837Z,25.60
2017-06-15T17:16:03.330Z,21.47
2017-06-15T17:18:30.802Z,20.27
2017-06-15T17:20:58.259Z,17.57
2017-06-15T17:23:25.762Z,16.30
2017-06-15T17:25:53.219Z,16.27
2017-06-15T17:28:20.675Z,13.90
2017-06-15T17:30:48.234Z,14.50
2017-06-15T17:33:15.796Z,13.50
2017-06-15T17:35:43.287Z,11.70
2017-06-15T17:38:10.794Z,11.37
2017-06-15T17:40:38.327Z,12.30
2017-06-15T17:43:05.778Z,10.73
2017-06-15T17:45:33.248Z,12.20
2017-06-15T17:48:00.706Z,9.10
2017-06-15T17:50:28.166Z,9.40
2017-06-15T17:52:55.671Z,7.60
2017-06-15T17:55:23.930Z,9.00
2017-06-15T17:57:51.388Z,7.43
2017-06-15T18:00:18.863Z,7.27
2017-06-15T18:02:47.104Z,7.13
2017-06-15T18:05:14.554Z,6.30
2017-06-15T18:07:42.028Z,5.50
2017-06-15T18:10:09.478Z,6.13
2017-06-15T18:12:36.947Z,5.40
2017-06-15T18:15:04.414Z,4.90
2017-06-15T18:17:32.732Z,5.50
2017-06-15T18:20:00.187Z,4.63
2017-06-15T18:22:27.666Z,4.53
2017-06-15T18:24:55.134Z,4.20
2017-06-15T18:27:22.599Z,3.83
2017-06-15T18:29:50.075Z,2.80
2017-06-15T18:32:17.531Z,3.53
2017-06-15T18:34:45.909Z,4.50
2017-06-15T18:37:13.513Z,3.60
2017-06-15T18:39:40.979Z,2.53
2017-06-15T18:42:08.658Z,3.03
2017-06-15T18:44:36.175Z,2.97
2017-06-15T18:47:03.829Z,3.40
2017-06-15T18:49:31.307Z,2.80
2017-06-15T18:51:58.850Z,3.17
2017-06-15T18:54:26.312Z,3.93
2017-06-15T18:56:53.964Z,3.70
2017-06-15T18:59:21.474Z,4.50
2017-06-15T19:01:48.938Z,3.50
2017-06-15T19:04:16.421Z,4.30
2017-06-15T19:06:43.907Z,4.20
2017-06-15T19:09:11.358Z,3.70
2017-06-15T19:11:39.003Z,4.20
2017-06-15T19:14:06.509Z,3.40
2017-06-15T19:16:34.244Z,4.30
2017-06-15T19:19:01.739Z,4.77
2017-06-15T19:21:29.466Z,5.23
2017-06-15T19:23:57.252Z,5.07
2017-06-15T19:26:26.008Z,4.50
2017-06-15T19:28:53.747Z,4.67
2017-06-15T19:31:21.537Z,4.33
2017-06-15T19:33:49.078Z,5.70
2017-06-15T19:36:16.905Z,3.90
2017-06-15T19:38:44.670Z,4.17
2017-06-15T19:41:12.497Z,4.50
2017-06-15T19:43:40.228Z,3.80
2017-06-15T19:46:07.687Z,4.67
2017-06-15T19:48:35.159Z,4.03
2017-06-15T19:51:02.656Z,4.10
2017-06-15T19:53:30.117Z,4.23
2017-06-15T19:55:57.578Z,4.70
2017-06-15T19:58:25.058Z,3.70
2017-06-15T20:00:53.279Z,4.00
2017-06-15T20:03:22.182Z,4.67
2017-06-15T20:05:49.659Z,5.10
2017-06-15T20:08:17.113Z,3.83
2017-06-15T20:10:44.719Z,3.80
2017-06-15T20:13:12.409Z,4.17
2017-06-15T20:15:39.921Z,4.07
2017-06-15T20:18:08.151Z,4.13
2017-06-15T20:20:35.824Z,4.30
2017-06-15T20:23:03.495Z,3.87
2017-06-15T20:25:36.747Z,4.30
2017-06-15T20:28:04.203Z,4.07
2017-06-15T20:30:31.654Z,5.10
2017-06-15T20:32:59.145Z,4.90
2017-06-15T20:35:26.613Z,4.70
2017-06-15T20:37:54.093Z,4.90
2017-06-15T20:40:21.628Z,5.23
2017-06-15T20:42:49.082Z,4.70
2017-06-15T20:45:16.575Z,5.10
2017-06-15T20:47:44.126Z,6.10
2017-06-15T20:50:11.582Z,5.73
2017-06-15T20:52:39.035Z,5.17
2017-06-15T20:55:07.210Z,5.23
2017-06-15T20:57:35.068Z,7.20
2017-06-15T21:00:03.512Z,6.13
2017-06-15T21:02:31.126Z,5.50
2017-06-15T21:04:58.935Z,5.70
2017-06-15T21:07:27.190Z,6.00
2017-06-15T21:09:55.929Z,6.67
2017-06-15T21:12:23.580Z,5.00
2017-06-15T21:14:51.040Z,6.10
2017-06-15T21:17:19.278Z,7.23
2017-06-15T21:19:46.742Z,6.80
2017-06-15T21:22:14.203Z,6.73
2017-06-15T21:24:41.675Z,6.70
2017-06-15T21:27:09.150Z,6.47
2017-06-15T21:29:36.602Z,7.20
2017-06-15T21:32:04.863Z,7.97
2017-06-15T21:34:32.331Z,6.47
2017-06-15T21:36:59.804Z,7.57
2017-06-15T21:39:27.351Z,8.60
2017-06-15T21:41:54.814Z,6.50
2017-06-15T21:44:23.040Z,7.80
2017-06-15T21:46:50.571Z,7.10
2017-06-15T21:49:18.109Z,8.07
2017-06-15T21:51:46.335Z,7.47
2017-06-15T21:54:13.814Z,8.70
2017-06-15T21:56:41.283Z,7.93
2017-06-15T21:59:08.815Z,7.20
2017-06-15T22:01:36.274Z,7.73
2017-06-15T22:04:03.740Z,7.77
2017-06-15T22:06:31.206Z,7.43
2017-06-15T22:08:59.440Z,7.03
2017-06-15T22:11:26.907Z,6.90
2017-06-15T22:13:54.369Z,7.00
2017-06-15T22:16:21.842Z,7.70
2017-06-15T22:18:49.316Z,7.00
2017-06-15T22:21:16.790Z,8.23
2017-06-15T22:23:44.283Z,7.83
2017-06-15T22:26:11.746Z,8.67
2017-06-15T22:28:39.210Z,6.73
2017-06-15T22:31:06.691Z,8.20
2017-06-15T22:33:34.154Z,7.43
2017-06-15T22:36:01.639Z,7.47
2017-06-15T22:38:29.114Z,6.90
2017-06-15T22:40:56.644Z,6.83
2017-06-15T22:43:24.875Z,7.10
2017-06-15T22:45:52.354Z,7.83
2017-06-15T22:48:19.810Z,7.47
2017-06-15T22:50:47.270Z,8.37
2017-06-15T22:53:14.726Z,7.20
2017-06-15T22:55:42.967Z,7.40
2017-06-15T22:58:10.439Z,7.53
2017-06-15T23:00:37.899Z,8.10
2017-06-15T23:03:26.307Z,6.57
2017-06-15T23:05:53.771Z,7.03
2017-06-15T23:08:21.246Z,6.87
2017-06-15T23:10:48.718Z,8.93
2017-06-15T23:13:16.179Z,8.10
2017-06-15T23:15:43.651Z,7.50
2017-06-15T23:18:11.106Z,8.73
2017-06-15T23:20:39.341Z,7.90
2017-06-15T23:23:06.822Z,7.87
2017-06-15T23:25:34.286Z,8.80
2017-06-15T23:28:02.557Z,7.57
2017-06-15T23:30:30.016Z,7.40
2017-06-15T23:32:57.623Z,8.17
2017-06-15T23:35:25.082Z,8.10
2017-06-15T23:37:52.559Z,8.30
2017-06-15T23:40:20.018Z,8.37
2017-06-15T23:42:47.508Z,7.43
2017-06-15T23:45:15.010Z,8.30
2017-06-15T23:47:42.463Z,7.80
2017-06-15T23:50:09.928Z,9.00
2017-06-15T23:52:37.410Z,8.50
2017-06-15T23:55:04.882Z,7.37
2017-06-15T23:57:32.355Z,7.60
2017-06-15T23:59:59.816Z,8.00
